Time;durP1;ratioP1;P1;durP2;ratioP2;P2;SDS_P1;SDS_P2;PMS_P1;PMS_P2;Temp;Humidity;BMP_temperature;BMP_pressure;BME280_temperature;BME280_humidity;BME280_pressure;Samples;Min_cycle;Max_cycle;Signal;HPM_P1;HPM_P2
2020/03/27 00:01:13;;;;;;;20.5;15.9;;;;;;;0.3;72.08887;933.4417;;;;
2020/03/27 00:03:38;;;;;;;18.9;15.4;;;;;;;0.22;72.30859;933.4276;;;;
2020/03/27 00:06:03;;;;;;;18.7;15.1;;;;;;;0.17;72.64648;933.4088;;;;
2020/03/27 00:08:28;;;;;;;17.7;15.2;;;;;;;0.1;72.88086;933.4094;;;;
2020/03/27 00:11:09;;;;;;;18.2;13.7;;;;;;;-0.1;73.4707;933.408;;;;
2020/03/27 00:13:18;;;;;;;16.7;13.1;;;;;;;-0.08;73.37207;933.3038;;;;
2020/03/27 00:15:44;;;;;;;17.7;13.5;;;;;;;-0.04;73.19043;933.2954;;;;
2020/03/27 00:18:08;;;;;;;16.5;12.6;;;;;;;0.06;72.59473;933.3293;;;;
2020/03/27 00:20:33;;;;;;;15.8;12.7;;;;;;;0.22;72.1543;933.3166;;;;
2020/03/27 00:22:58;;;;;;;17.6;13.8;;;;;;;0.25;72.11426;933.3983;;;;
2020/03/27 00:25:23;;;;;;;16.2;12.2;;;;;;;0.28;71.71973;933.3228;;;;
2020/03/27 00:27:49;;;;;;;15.9;12.8;;;;;;;0.3;71.74512;933.3167;;;;
2020/03/27 00:30:14;;;;;;;16.4;12.8;;;;;;;0.41;71.38281;933.3381;;;;
2020/03/27 00:32:39;;;;;;;15.7;12;;;;;;;0.41;71.12793;933.1495;;;;
2020/03/27 00:35:04;;;;;;;16.4;12.5;;;;;;;0.32;71.45801;933.2515;;;;
2020/03/27 00:37:30;;;;;;;18.8;13.5;;;;;;;0.26;71.82617;933.2592;;;;
2020/03/27 00:39:54;;;;;;;17.2;13.4;;;;;;;0.29;71.89941;933.2933;;;;
2020/03/27 00:42:19;;;;;;;16.6;12.9;;;;;;;0.18;72.2373;933.1792;;;;
2020/03/27 00:44:45;;;;;;;17.4;13.2;;;;;;;0.17;72.5127;933.2767;;;;
2020/03/27 00:47:10;;;;;;;18;13.4;;;;;;;0.14;72.53027;933.2473;;;;
2020/03/27 00:49:35;;;;;;;15.8;12.4;;;;;;;0.1;72.73438;933.2824;;;;
2020/03/27 00:52:00;;;;;;;16.1;11.9;;;;;;;0.22;73.38965;933.3359;;;;
2020/03/27 00:54:30;;;;;;;15;11.2;;;;;;;0.28;71.91895;933.3031;;;;
2020/03/27 00:56:51;;;;;;;14;10.8;;;;;;;0.23;71.97656;933.3035;;;;
2020/03/27 00:59:16;;;;;;;15;11.5;;;;;;;0.32;71.65918;933.2523;;;;
2020/03/27 01:01:43;;;;;;;15.5;11.2;;;;;;;0.28;71.84082;933.2499;;;;
2020/03/27 01:04:32;;;;;;;13.7;11.1;;;;;;;0.34;71.62988;933.3377;;;;
2020/03/27 01:06:59;;;;;;;16.6;11.8;;;;;;;0.32;71.71484;933.3392;;;;
2020/03/27 01:09:22;;;;;;;15.7;11.8;;;;;;;0.26;71.79395;933.2954;;;;
2020/03/27 01:11:54;;;;;;;15.4;11.9;;;;;;;0.35;71.49609;933.3356;;;;
2020/03/27 01:14:15;;;;;;;15.1;11.5;;;;;;;0.28;71.79785;933.3347;;;;
2020/03/27 01:16:41;;;;;;;15.1;10.4;;;;;;;0.25;72.13574;933.2808;;;;
2020/03/27 01:19:05;;;;;;;17.2;11.6;;;;;;;0.28;72.02051;933.2806;;;;
2020/03/27 01:21:31;;;;;;;15.7;11.2;;;;;;;0.23;72.44434;933.3331;;;;
2020/03/27 01:23:59;;;;;;;12.6;10.3;;;;;;;0.21;72.42969;933.2791;;;;
2020/03/27 01:26:24;;;;;;;13.4;10.6;;;;;;;0.16;73.03516;933.2332;;;;
2020/03/27 01:28:49;;;;;;;13.9;10;;;;;;;0.27;72.56543;933.303;;;;
2020/03/27 01:31:16;;;;;;;13.7;10.7;;;;;;;0.35;72.28809;933.3286;;;;
2020/03/27 01:33:41;;;;;;;13.1;10;;;;;;;0.53;72.4209;933.4386;;;;
2020/03/27 01:36:05;;;;;;;13;10;;;;;;;0.57;71.42285;933.3406;;;;
2020/03/27 01:38:30;;;;;;;12.3;9.6;;;;;;;0.54;71.20605;933.2996;;;;
2020/03/27 01:40:56;;;;;;;13;10.1;;;;;;;0.4;71.73828;933.282;;;;
2020/03/27 01:43:21;;;;;;;13.3;10.2;;;;;;;0.49;71.25293;933.1534;;;;
2020/03/27 01:45:47;;;;;;;13.4;10.4;;;;;;;0.43;71.68848;933.2857;;;;
2020/03/27 01:48:12;;;;;;;15.2;10.7;;;;;;;0.44;71.94629;933.2275;;;;
2020/03/27 01:50:37;;;;;;;13.3;10.9;;;;;;;0.24;72.60352;933.2258;;;;
2020/03/27 01:53:02;;;;;;;13.8;10.9;;;;;;;0.23;72.76953;933.2964;;;;
2020/03/27 01:55:27;;;;;;;14.5;10.4;;;;;;;0.41;72.06445;933.2842;;;;
2020/03/27 01:57:52;;;;;;;14.4;10.1;;;;;;;0.51;71.59082;933.2715;;;;
2020/03/27 02:00:17;;;;;;;12.1;9.9;;;;;;;0.52;71.43555;933.2886;;;;
2020/03/27 02:02:43;;;;;;;11.8;9.6;;;;;;;0.44;71.33398;933.2355;;;;
2020/03/27 02:05:08;;;;;;;12.6;9.5;;;;;;;0.33;71.81641;933.1746;;;;
2020/03/27 02:07:33;;;;;;;10.9;9.3;;;;;;;0.21;72.40918;933.2277;;;;
2020/03/27 02:09:58;;;;;;;12.9;9.3;;;;;;;0.11;72.66016;933.1655;;;;
2020/03/27 02:12:25;;;;;;;14;9.7;;;;;;;0.03;73.12305;933.116;;;;
2020/03/27 02:14:49;;;;;;;12;9.2;;;;;;;-0.05;73.49121;933.0737;;;;
2020/03/27 02:17:15;;;;;;;12.5;9.3;;;;;;;-0.17;74.19238;933.1094;;;;
2020/03/27 02:19:40;;;;;;;14.1;10.6;;;;;;;-0.09;74.02734;933.1147;;;;
2020/03/27 02:22:05;;;;;;;16.2;10;;;;;;;-0.16;74.2041;933.0424;;;;
2020/03/27 02:24:30;;;;;;;12.3;9.7;;;;;;;-0.29;75.08301;933.0034;;;;
2020/03/27 02:26:55;;;;;;;12.8;9.4;;;;;;;-0.21;75.06445;933.0737;;;;
2020/03/27 02:29:21;;;;;;;11.5;9;;;;;;;-0.24;75.05957;933.0153;;;;
2020/03/27 02:31:45;;;;;;;13.4;9.5;;;;;;;-0.28;75.36328;933.0645;;;;
2020/03/27 02:34:11;;;;;;;11.8;9.2;;;;;;;-0.28;75.34277;933.0898;;;;
2020/03/27 02:36:36;;;;;;;13.1;9.7;;;;;;;-0.34;75.6543;933.0717;;;;
2020/03/27 02:43:59;;;;;;;11.2;9.6;;;;;;;-0.16;75.25195;933.0911;;;;
2020/03/27 02:46:18;;;;;;;13.6;9;;;;;;;-0.01;74.74316;933.0806;;;;
2020/03/27 02:48:47;;;;;;;10.9;8.8;;;;;;;0.19;74.10059;933.0677;;;;
2020/03/27 02:53:32;;;;;;;14.4;8.7;;;;;;;0.42;72.9248;932.9983;;;;
2020/03/27 02:55:57;;;;;;;11.3;8.8;;;;;;;0.38;73.17285;933.072;;;;
2020/03/27 02:58:22;;;;;;;12.9;8.9;;;;;;;0.31;73.39648;932.9749;;;;
2020/03/27 03:00:48;;;;;;;10.8;8.9;;;;;;;0.19;73.87695;932.9659;;;;
2020/03/27 03:03:13;;;;;;;10.8;8.7;;;;;;;0.32;74.13379;932.9556;;;;
2020/03/27 03:05:38;;;;;;;11;8.6;;;;;;;0.45;73.0625;932.9278;;;;
2020/03/27 03:08:03;;;;;;;13.7;8.5;;;;;;;0.17;73.87305;932.9501;;;;
2020/03/27 03:10:28;;;;;;;10;7.8;;;;;;;0.16;74.05078;932.8819;;;;
2020/03/27 03:12:53;;;;;;;10.7;7.8;;;;;;;0.02;74.48242;932.8778;;;;
2020/03/27 03:15:18;;;;;;;10.8;8.4;;;;;;;0.27;73.67773;932.9059;;;;
2020/03/27 03:17:44;;;;;;;10;7.4;;;;;;;0.23;73.65918;932.8572;;;;
2020/03/27 03:20:09;;;;;;;11.5;8.5;;;;;;;0.35;73.26855;932.8063;;;;
2020/03/27 03:22:34;;;;;;;10;7.9;;;;;;;0.21;73.95801;932.7511;;;;
2020/03/27 03:24:59;;;;;;;9.8;7.8;;;;;;;0.14;74.89258;932.8075;;;;
2020/03/27 03:28:58;;;;;;;10.7;7.7;;;;;;;0.27;74.16895;932.7695;;;;
2020/03/27 03:30:33;;;;;;;10.5;7.5;;;;;;;0.17;74.59668;932.644;;;;
2020/03/27 03:32:25;;;;;;;10;7.3;;;;;;;0.12;74.74316;932.7635;;;;
2020/03/27 03:34:41;;;;;;;10.1;7.7;;;;;;;0.28;74.26074;932.6981;;;;
2020/03/27 03:37:06;;;;;;;11.1;7.9;;;;;;;0.16;74.6084;932.6814;;;;
2020/03/27 03:39:30;;;;;;;9.6;7.6;;;;;;;0.09;74.79395;932.6613;;;;
2020/03/27 03:41:59;;;;;;;13.4;8;;;;;;;0.2;74.99219;932.6844;;;;
2020/03/27 03:46:51;;;;;;;11.2;7.8;;;;;;;0.38;73.58691;932.7349;;;;
2020/03/27 03:49:11;;;;;;;11.3;8;;;;;;;0.28;73.77051;932.7874;;;;
2020/03/27 03:51:56;;;;;;;117.4;91.4;;;;;;;0.39;73.52148;932.7241;;;;
2020/03/27 03:56:26;;;;;;;12.8;9.1;;;;;;;0.35;73.80371;932.7728;;;;
2020/03/27 03:58:51;;;;;;;12.2;8.1;;;;;;;0.41;73.50098;932.8605;;;;
2020/03/27 04:02:30;;;;;;;9.6;7.6;;;;;;;0.4;73.69043;932.7444;;;;
2020/03/27 04:04:55;;;;;;;10;8;;;;;;;0.36;73.93945;932.841;;;;
2020/03/27 04:07:20;;;;;;;10.5;7;;;;;;;0.46;74.13477;932.821;;;;
2020/03/27 04:09:45;;;;;;;10.9;8.8;;;;;;;0.44;73.96484;932.9227;;;;
2020/03/27 04:12:10;;;;;;;14.5;11;;;;;;;0.33;73.90137;933.0186;;;;
2020/03/27 04:14:35;;;;;;;15.2;12.7;;;;;;;0.2;74.72461;933.1055;;;;
2020/03/27 04:17:00;;;;;;;18.1;15.7;;;;;;;0.21;74.91699;933.1471;;;;
2020/03/27 04:19:25;;;;;;;23.8;19.2;;;;;;;0.14;75.17188;933.0648;;;;
2020/03/27 04:21:51;;;;;;;27.5;20.3;;;;;;;0.03;75.75391;933.2147;;;;
2020/03/27 04:24:16;;;;;;;27.5;21.2;;;;;;;0.08;75.80859;933.2693;;;;
2020/03/27 04:26:41;;;;;;;25;21.4;;;;;;;0.2;75.66211;933.2461;;;;
2020/03/27 04:29:06;;;;;;;27.3;22.7;;;;;;;0.06;76.2041;933.2949;;;;
2020/03/27 04:31:31;;;;;;;26.1;21.4;;;;;;;0.05;76.1582;933.2615;;;;
2020/03/27 04:33:57;;;;;;;25.2;21.6;;;;;;;0.21;75.76367;933.3176;;;;
2020/03/27 04:36:22;;;;;;;28.1;22.8;;;;;;;0.18;75.88184;933.3617;;;;
2020/03/27 04:38:47;;;;;;;27.4;22.3;;;;;;;0.29;75.45508;933.4185;;;;
2020/03/27 04:41:12;;;;;;;27.8;22.6;;;;;;;0.27;75.03809;933.4484;;;;
2020/03/27 04:43:37;;;;;;;31;23.8;;;;;;;0.16;75.1748;933.4515;;;;
2020/03/27 04:46:02;;;;;;;30;23.3;;;;;;;0.22;75.18652;933.5061;;;;
2020/03/27 04:48:27;;;;;;;27.1;23.3;;;;;;;0.11;75.09961;933.4926;;;;
2020/03/27 04:51:01;;;;;;;28.3;24.1;;;;;;;0.14;75.06055;933.5582;;;;
2020/03/27 04:53:17;;;;;;;28.7;23.9;;;;;;;0.18;75.05664;933.5111;;;;
2020/03/27 04:55:42;;;;;;;28.5;23.8;;;;;;;0.05;75.12207;933.5927;;;;
2020/03/27 04:58:07;;;;;;;31.6;23.5;;;;;;;0.14;74.63672;933.5745;;;;
2020/03/27 05:00:33;;;;;;;31.3;25.6;;;;;;;0.15;74.81641;933.6203;;;;
2020/03/27 05:02:58;;;;;;;31;25;;;;;;;0.16;74.96484;933.6411;;;;
2020/03/27 05:05:23;;;;;;;32;25.7;;;;;;;0.1;75.67578;933.7183;;;;
2020/03/27 05:07:48;;;;;;;28.9;25.1;;;;;;;0.17;75.3877;933.7008;;;;
2020/03/27 05:10:15;;;;;;;30.5;25.4;;;;;;;0.15;75.26367;933.7606;;;;
2020/03/27 05:12:44;;;;;;;32.3;24.9;;;;;;;-0.03;75.88867;933.785;;;;
2020/03/27 05:15:08;;;;;;;27.7;22.5;;;;;;;0.09;75.80957;933.8333;;;;
2020/03/27 05:17:32;;;;;;;25;20.4;;;;;;;0.03;75.67578;933.7687;;;;
2020/03/27 05:19:55;;;;;;;28.2;20.9;;;;;;;-0.17;76.43066;933.847;;;;
2020/03/27 05:22:19;;;;;;;25.4;20.2;;;;;;;-0.36;77.32031;933.7434;;;;
2020/03/27 05:24:44;;;;;;;24.3;20.1;;;;;;;-0.32;77.37109;933.7858;;;;
2020/03/27 05:27:09;;;;;;;26;20.2;;;;;;;-0.14;76.63574;933.7866;;;;
2020/03/27 05:29:34;;;;;;;28.4;20.8;;;;;;;-0.25;77.25098;933.7888;;;;
2020/03/27 05:31:59;;;;;;;28.2;21.4;;;;;;;-0.16;76.90918;933.8585;;;;
2020/03/27 05:34:24;;;;;;;29.4;20.9;;;;;;;-0.11;76.95313;933.7972;;;;
2020/03/27 05:36:49;;;;;;;27.3;20.9;;;;;;;0.12;76.1582;933.8475;;;;
2020/03/27 05:39:14;;;;;;;31.3;21.6;;;;;;;0.16;76.05469;933.8381;;;;
2020/03/27 05:41:40;;;;;;;25.3;19.9;;;;;;;0.19;75.76074;933.8005;;;;
2020/03/27 05:44:05;;;;;;;26.5;19.4;;;;;;;0.18;75.76855;933.6831;;;;
2020/03/27 05:46:30;;;;;;;24.1;18.8;;;;;;;0.14;75.71777;933.753;;;;
2020/03/27 05:48:55;;;;;;;20.8;16.5;;;;;;;0.11;75.89063;933.6883;;;;
2020/03/27 05:51:20;;;;;;;18.7;15.8;;;;;;;0.45;75.46094;933.642;;;;
2020/03/27 05:53:45;;;;;;;20;14.2;;;;;;;0.68;73.91797;933.7485;;;;
2020/03/27 05:56:19;;;;;;;23.2;15.9;;;;;;;1.22;72.07813;933.6881;;;;
2020/03/27 05:58:35;;;;;;;23.1;14.9;;;;;;;1.68;70.40137;933.6399;;;;
2020/03/27 06:01:03;;;;;;;18.6;13.6;;;;;;;1.98;68.71777;933.6003;;;;
2020/03/27 06:03:25;;;;;;;23.3;15.2;;;;;;;2.29;67.31152;933.5756;;;;
2020/03/27 06:05:50;;;;;;;22.3;14.7;;;;;;;2.73;65.62109;933.5383;;;;
2020/03/27 06:08:15;;;;;;;23.1;14.5;;;;;;;2.85;64.80762;933.5516;;;;
2020/03/27 06:10:41;;;;;;;19.6;14.5;;;;;;;3.25;63.74707;933.4955;;;;
2020/03/27 06:13:06;;;;;;;18.9;13.4;;;;;;;4.13;60.74219;933.5017;;;;
2020/03/27 06:15:31;;;;;;;17.7;12.5;;;;;;;5.04;57.72656;933.3466;;;;
2020/03/27 06:17:56;;;;;;;13.9;11.5;;;;;;;5.4;56.29688;933.2115;;;;
2020/03/27 06:20:21;;;;;;;14.2;11;;;;;;;5.34;56.25391;933.2095;;;;
2020/03/27 06:22:46;;;;;;;13.9;10.1;;;;;;;5.84;54.53809;933.2756;;;;
2020/03/27 06:25:11;;;;;;;12.9;9.9;;;;;;;6.26;53.49316;933.2753;;;;
2020/03/27 06:27:36;;;;;;;15.9;9.6;;;;;;;6.85;51.90332;933.1774;;;;
2020/03/27 06:30:01;;;;;;;12;9.8;;;;;;;7.28;50.38086;933.188;;;;
2020/03/27 06:32:26;;;;;;;13.1;9.7;;;;;;;7.43;49.8877;933.1672;;;;
2020/03/27 06:34:51;;;;;;;12.6;9.5;;;;;;;7.77;49.33789;933.0361;;;;
2020/03/27 06:37:16;;;;;;;14.2;9.1;;;;;;;8.35;48.1084;933.082;;;;
2020/03/27 06:39:49;;;;;;;13.6;8.4;;;;;;;9;46.24805;933.0643;;;;
2020/03/27 06:42:29;;;;;;;16.9;9.3;;;;;;;9.31;45.39355;933.0159;;;;
2020/03/27 06:44:31;;;;;;;14.3;9.6;;;;;;;9.44;44.88281;932.9796;;;;
2020/03/27 06:46:57;;;;;;;13.2;9.8;;;;;;;10.02;44.7832;932.8887;;;;
2020/03/27 06:49:22;;;;;;;15.4;9.6;;;;;;;10.04;43.06348;932.8865;;;;
2020/03/27 06:51:48;;;;;;;11.7;9.1;;;;;;;8.89;45.42773;932.8833;;;;
2020/03/27 06:54:13;;;;;;;13.7;9;;;;;;;8.25;47.46191;932.8492;;;;
2020/03/27 06:56:38;;;;;;;16.6;9.4;;;;;;;8.62;47.04785;932.7938;;;;
2020/03/27 06:59:03;;;;;;;17.5;9.7;;;;;;;9.25;45.61523;932.8616;;;;
2020/03/27 07:01:28;;;;;;;12.1;8.1;;;;;;;9.47;44.58887;932.7428;;;;
2020/03/27 07:03:53;;;;;;;16.1;8.4;;;;;;;9.93;44.03223;932.8342;;;;
2020/03/27 07:06:19;;;;;;;12.8;7.8;;;;;;;10.57;43.03516;932.7958;;;;
2020/03/27 07:08:44;;;;;;;9.1;7.2;;;;;;;11.02;42.0752;932.8315;;;;
2020/03/27 07:11:09;;;;;;;12;8.1;;;;;;;10.99;42.23242;932.8512;;;;
2020/03/27 07:13:34;;;;;;;13.4;8.3;;;;;;;12.04;40.4209;932.7989;;;;
2020/03/27 07:15:59;;;;;;;13.2;6.8;;;;;;;11.79;40.78809;932.7213;;;;
2020/03/27 07:18:24;;;;;;;21.9;9.7;;;;;;;12.45;41.11328;932.762;;;;
2020/03/27 07:20:50;;;;;;;16.6;10;;;;;;;12.27;41.41699;932.782;;;;
2020/03/27 07:23:14;;;;;;;16.6;10.1;;;;;;;11.85;41.18359;932.7804;;;;
2020/03/27 07:25:40;;;;;;;14.4;9.9;;;;;;;11.08;42.94922;932.8013;;;;
2020/03/27 07:28:05;;;;;;;16.5;10;;;;;;;10.63;43.01953;932.8988;;;;
2020/03/27 07:30:30;;;;;;;15.7;9.7;;;;;;;10.84;43.69141;932.9111;;;;
2020/03/27 07:32:55;;;;;;;15.3;10.1;;;;;;;10.91;43.20703;932.9891;;;;
2020/03/27 07:35:20;;;;;;;15.7;9.2;;;;;;;10.71;43.2793;933.0031;;;;
2020/03/27 07:37:45;;;;;;;11.8;8.7;;;;;;;10.75;44.01465;933.0223;;;;
2020/03/27 07:40:11;;;;;;;14.2;8.7;;;;;;;11.9;41.39258;932.9828;;;;
2020/03/27 07:42:36;;;;;;;11.7;8.1;;;;;;;11.63;41.34375;933.0494;;;;
2020/03/27 07:45:01;;;;;;;12.2;7.6;;;;;;;11.2;42.50391;933.0273;;;;
2020/03/27 07:47:26;;;;;;;15.3;8.5;;;;;;;11.19;42.91504;933.1612;;;;
2020/03/27 07:49:51;;;;;;;14.1;7.9;;;;;;;11.05;42.83105;933.2673;;;;
2020/03/27 07:52:16;;;;;;;12.9;7.6;;;;;;;10.76;42.94043;933.3655;;;;
2020/03/27 07:54:41;;;;;;;10.9;7.6;;;;;;;10.73;43.2002;933.3942;;;;
2020/03/27 07:57:06;;;;;;;11.6;7.9;;;;;;;11.25;42.37207;933.4411;;;;
2020/03/27 07:59:31;;;;;;;15.4;7.6;;;;;;;12.97;38.625;933.5249;;;;
2020/03/27 08:01:57;;;;;;;11.1;8.5;;;;;;;13.27;37.35352;933.4978;;;;
2020/03/27 08:04:22;;;;;;;12;9.2;;;;;;;12.54;39.97559;933.5217;;;;
2020/03/27 08:06:47;;;;;;;12.5;9.9;;;;;;;12.96;39.42676;933.6361;;;;
2020/03/27 08:09:12;;;;;;;13.1;9.9;;;;;;;12.77;38.7334;933.5844;;;;
2020/03/27 08:11:37;;;;;;;14.6;10.4;;;;;;;11.08;42.05859;933.6497;;;;
2020/03/27 08:14:02;;;;;;;15;10.4;;;;;;;11.43;41.90918;933.7313;;;;
2020/03/27 08:16:27;;;;;;;14.5;10.1;;;;;;;12.98;38.68359;933.6983;;;;
2020/03/27 08:18:59;;;;;;;12.1;10;;;;;;;14.53;35.51367;933.7654;;;;
2020/03/27 08:21:19;;;;;;;15.9;11.9;;;;;;;13.57;37.12598;933.9193;;;;
2020/03/27 08:23:43;;;;;;;14.9;11;;;;;;;13.95;36.77832;933.8753;;;;
2020/03/27 08:26:08;;;;;;;12.5;10.2;;;;;;;14.6;35.64648;933.767;;;;
2020/03/27 08:28:33;;;;;;;15.8;10.6;;;;;;;15.53;34.87891;933.8508;;;;
2020/03/27 08:30:58;;;;;;;14;9;;;;;;;17.16;31.26465;933.7723;;;;
2020/03/27 08:33:24;;;;;;;14.4;9.4;;;;;;;17.59;30.03027;933.8592;;;;
2020/03/27 08:35:49;;;;;;;11.4;8.8;;;;;;;17.09;31.23633;933.8842;;;;
2020/03/27 08:38:14;;;;;;;12;8.9;;;;;;;17.91;29.84375;933.9051;;;;
2020/03/27 08:40:40;;;;;;;11;8.5;;;;;;;17.94;30.07715;933.8867;;;;
2020/03/27 08:43:04;;;;;;;13.8;8.6;;;;;;;19.5;27.7832;933.9073;;;;
2020/03/27 08:45:30;;;;;;;13.1;8.8;;;;;;;18.68;28.66211;933.947;;;;
2020/03/27 08:47:55;;;;;;;11.5;8.1;;;;;;;19.49;27.7832;934.0714;;;;
2020/03/27 08:50:20;;;;;;;10.7;7.8;;;;;;;18.76;28.50488;934.0633;;;;
2020/03/27 08:52:45;;;;;;;11.5;7.9;;;;;;;19.21;28.12598;934.0385;;;;
2020/03/27 08:55:10;;;;;;;10.7;7.4;;;;;;;20.28;26.28027;934.0555;;;;
2020/03/27 08:57:36;;;;;;;11;7;;;;;;;20.52;25.32422;934.0736;;;;
2020/03/27 09:00:00;;;;;;;9;7;;;;;;;18.98;26.85449;934.0306;;;;
2020/03/27 09:04:54;;;;;;;10.4;7.5;;;;;;;16.05;31.45215;934.1294;;;;
2020/03/27 09:07:16;;;;;;;11.8;8;;;;;;;15.13;33.35938;933.9841;;;;
2020/03/27 09:09:41;;;;;;;11.6;7.8;;;;;;;14.59;34.9541;934.0748;;;;
2020/03/27 09:12:06;;;;;;;12.1;8.3;;;;;;;14.84;35.30859;934.1194;;;;
2020/03/27 09:14:31;;;;;;;11.4;7.8;;;;;;;16.34;32.41016;934.0905;;;;
2020/03/27 09:16:56;;;;;;;10.3;7.5;;;;;;;16.9;32.18457;934.0924;;;;
2020/03/27 09:19:22;;;;;;;11.9;7.8;;;;;;;17.86;29.60742;934.1055;;;;
2020/03/27 09:21:47;;;;;;;10.4;7.2;;;;;;;18.97;28.43652;934.0606;;;;
2020/03/27 09:24:12;;;;;;;9.3;6.8;;;;;;;19.72;27.12109;934.0503;;;;
2020/03/27 09:26:37;;;;;;;11;7.6;;;;;;;19.98;27.11328;933.9601;;;;
2020/03/27 09:29:02;;;;;;;9;6.5;;;;;;;20.02;26.70801;933.9509;;;;
2020/03/27 09:31:27;;;;;;;10.2;7.1;;;;;;;20.58;26.36816;933.9161;;;;
2020/03/27 09:33:52;;;;;;;10.3;6.6;;;;;;;20.55;25.79297;933.7581;;;;
2020/03/27 09:36:18;;;;;;;11;6.7;;;;;;;20.63;25.63477;933.7846;;;;
2020/03/27 09:38:43;;;;;;;9.8;6.7;;;;;;;19.98;26.06348;933.7897;;;;
2020/03/27 09:41:08;;;;;;;9.2;7.2;;;;;;;19.74;27.25098;933.7084;;;;
2020/03/27 09:43:33;;;;;;;9.9;7.5;;;;;;;18.9;28.78125;933.7361;;;;
2020/03/27 09:45:58;;;;;;;10.9;6.7;;;;;;;18.27;29.13477;933.7787;;;;
2020/03/27 09:48:23;;;;;;;12.8;7;;;;;;;18.51;29.19824;933.8011;;;;
2020/03/27 09:50:50;;;;;;;14.3;7.6;;;;;;;18.52;30.09375;933.7341;;;;
2020/03/27 09:53:15;;;;;;;12.2;7.4;;;;;;;18.29;29.54297;933.6411;;;;
2020/03/27 09:55:40;;;;;;;11.6;7.7;;;;;;;18.62;29.76367;933.4791;;;;
2020/03/27 09:58:05;;;;;;;10;7.6;;;;;;;18.46;30.58984;933.5606;;;;
2020/03/27 10:00:32;;;;;;;11;6.9;;;;;;;18.01;29.81543;933.6102;;;;
2020/03/27 10:05:39;;;;;;;10;6.8;;;;;;;16.64;32.25781;933.5699;;;;
2020/03/27 10:07:55;;;;;;;9;6.6;;;;;;;16.35;33.41602;933.6397;;;;
2020/03/27 10:10:11;;;;;;;12.4;7.2;;;;;;;16.57;32.90137;933.624;;;;
2020/03/27 10:12:36;;;;;;;12.8;8.8;;;;;;;16.53;32.85156;933.6192;;;;
2020/03/27 10:15:01;;;;;;;12.9;8.1;;;;;;;16.56;33.96582;933.6686;;;;
2020/03/27 10:17:26;;;;;;;12.8;8.6;;;;;;;16.62;33.99316;933.7414;;;;
2020/03/27 10:19:52;;;;;;;11;8.1;;;;;;;16.25;34.13867;933.6752;;;;
2020/03/27 10:22:17;;;;;;;11.6;8.2;;;;;;;16.01;34.11914;933.628;;;;
2020/03/27 10:24:42;;;;;;;11.5;7.9;;;;;;;16.18;34.36426;933.711;;;;
2020/03/27 10:27:07;;;;;;;12.4;8.3;;;;;;;16.41;34.16211;933.6906;;;;
2020/03/27 10:29:32;;;;;;;14.8;8.2;;;;;;;16.64;33.27734;933.6591;;;;
2020/03/27 10:31:57;;;;;;;13;7.8;;;;;;;16.03;33.98242;933.636;;;;
2020/03/27 10:34:22;;;;;;;11.2;7.9;;;;;;;16.51;34.16992;933.6028;;;;
2020/03/27 10:36:48;;;;;;;12.2;7.7;;;;;;;17.58;31.99023;933.5745;;;;
2020/03/27 10:39:14;;;;;;;9.7;7.6;;;;;;;17.4;32.89355;933.6044;;;;
2020/03/27 10:41:40;;;;;;;10.3;7.7;;;;;;;17.64;32.36621;933.5822;;;;
2020/03/27 10:44:05;;;;;;;10.9;7.5;;;;;;;16.8;33.15039;933.6479;;;;
2020/03/27 10:46:30;;;;;;;12.9;8.3;;;;;;;16.29;34.15234;933.6721;;;;
2020/03/27 10:48:55;;;;;;;11.4;7.7;;;;;;;16.38;34.18359;933.6525;;;;
2020/03/27 10:51:20;;;;;;;12.1;7.9;;;;;;;16.6;33.72559;933.6106;;;;
2020/03/27 10:53:45;;;;;;;10.7;7.9;;;;;;;17.05;32.78711;933.5745;;;;
2020/03/27 10:56:11;;;;;;;12.4;8.1;;;;;;;17.99;31.72949;933.6019;;;;
2020/03/27 10:58:36;;;;;;;12.3;8.2;;;;;;;18.76;30.35449;933.6317;;;;
2020/03/27 11:01:00;;;;;;;11.4;8.1;;;;;;;18.42;30.80762;933.5793;;;;
2020/03/27 11:03:29;;;;;;;11.9;8.2;;;;;;;17.23;32.8125;933.5648;;;;
2020/03/27 11:05:51;;;;;;;16.9;8.9;;;;;;;17.28;33.09375;933.6072;;;;
2020/03/27 11:08:16;;;;;;;11.1;7.9;;;;;;;17.43;32.65332;933.6619;;;;
2020/03/27 11:10:41;;;;;;;12.6;8.4;;;;;;;17.39;32.71875;933.6022;;;;
2020/03/27 11:13:06;;;;;;;12.5;7.8;;;;;;;17.51;32.00879;933.6753;;;;
2020/03/27 11:15:31;;;;;;;12.7;8.1;;;;;;;18.08;31.51563;933.7288;;;;
2020/03/27 11:17:56;;;;;;;10.8;7.4;;;;;;;18.33;30.55762;933.6454;;;;
2020/03/27 11:20:22;;;;;;;11.6;7.5;;;;;;;19.02;29.67383;933.7341;;;;
2020/03/27 11:22:46;;;;;;;10;7.5;;;;;;;20.23;27.29199;933.7366;;;;
2020/03/27 11:25:12;;;;;;;16.2;7.8;;;;;;;21.01;26.49902;933.6541;;;;
2020/03/27 11:27:37;;;;;;;13.7;7.5;;;;;;;20.77;27.99219;933.6168;;;;
2020/03/27 11:30:02;;;;;;;10.6;7.2;;;;;;;20.78;27.5957;933.6057;;;;
2020/03/27 11:32:27;;;;;;;10.1;7.3;;;;;;;20.99;27.58496;933.7204;;;;
2020/03/27 11:34:52;;;;;;;13;7.9;;;;;;;20.43;27.85352;933.7277;;;;
2020/03/27 11:37:17;;;;;;;10.4;7.7;;;;;;;20.75;27.12598;933.7452;;;;
2020/03/27 11:39:42;;;;;;;10.2;7.4;;;;;;;21.25;26.31445;933.6829;;;;
2020/03/27 11:42:07;;;;;;;11.4;7.7;;;;;;;20.37;28.74902;933.7427;;;;
2020/03/27 11:44:32;;;;;;;10.1;7.2;;;;;;;20.79;27.2334;933.6961;;;;
2020/03/27 11:46:57;;;;;;;11.4;7.1;;;;;;;21.8;26.3584;933.6264;;;;
2020/03/27 11:49:22;;;;;;;11.2;7.7;;;;;;;20.81;27.6084;933.6742;;;;
2020/03/27 11:51:48;;;;;;;10.3;8;;;;;;;21.84;26.38379;933.5975;;;;
2020/03/27 11:54:13;;;;;;;13.5;8.1;;;;;;;21.18;26.89453;933.5823;;;;
2020/03/27 11:56:38;;;;;;;12.4;7.6;;;;;;;21.79;25.88965;933.6149;;;;
2020/03/27 11:59:06;;;;;;;11.8;7.6;;;;;;;23.66;23.66895;933.5485;;;;
2020/03/27 12:01:33;;;;;;;11.3;7.6;;;;;;;23.69;23.17578;933.5522;;;;
2020/03/27 12:03:56;;;;;;;13.3;7.9;;;;;;;22.7;24.76855;933.4826;;;;
2020/03/27 12:06:22;;;;;;;13.2;8.5;;;;;;;21.25;27.84766;933.4989;;;;
2020/03/27 12:08:48;;;;;;;14.1;8;;;;;;;22.06;24.88477;933.5073;;;;
2020/03/27 12:11:12;;;;;;;12;7.8;;;;;;;21.81;26.64063;933.5215;;;;
2020/03/27 12:13:38;;;;;;;11.2;8;;;;;;;21.52;27.05566;933.4718;;;;
2020/03/27 12:16:03;;;;;;;12;7.6;;;;;;;22.85;24.1543;933.474;;;;
2020/03/27 12:18:28;;;;;;;13.8;8;;;;;;;22.53;25.43945;933.4242;;;;
2020/03/27 12:20:54;;;;;;;10.3;8.1;;;;;;;23.04;24.15332;933.3801;;;;
2020/03/27 12:23:19;;;;;;;13.2;8;;;;;;;21.53;26.85742;933.3052;;;;
2020/03/27 12:25:44;;;;;;;11.9;8.4;;;;;;;22.34;25.40527;933.2734;;;;
2020/03/27 12:28:11;;;;;;;9.8;8;;;;;;;21.4;27.13086;933.2589;;;;
2020/03/27 12:30:37;;;;;;;14.4;8.4;;;;;;;21.54;26.74121;933.2916;;;;
2020/03/27 12:33:01;;;;;;;11.4;8.3;;;;;;;20.62;28.07617;933.2045;;;;
2020/03/27 12:35:27;;;;;;;12.2;8.9;;;;;;;21.04;27.43555;933.2899;;;;
2020/03/27 12:37:54;;;;;;;12;8.6;;;;;;;20.95;27.50098;933.2587;;;;
2020/03/27 12:40:18;;;;;;;12.7;8.9;;;;;;;21.1;28.69141;933.2581;;;;
2020/03/27 12:42:52;;;;;;;11;8.9;;;;;;;20.77;27.71191;933.1894;;;;
2020/03/27 12:45:11;;;;;;;12.5;8.9;;;;;;;19.58;29.95703;932.938;;;;
2020/03/27 12:47:37;;;;;;;11.1;9.3;;;;;;;19.49;29.88086;933.2178;;;;
2020/03/27 12:49:59;;;;;;;15.2;9.7;;;;;;;20.44;28.71875;933.2097;;;;
2020/03/27 12:52:25;;;;;;;14.9;9.8;;;;;;;20.85;29.02539;933.2676;;;;
2020/03/27 12:54:50;;;;;;;14.1;9.4;;;;;;;21.29;28.31738;933.2302;;;;
2020/03/27 12:57:16;;;;;;;15.2;9.6;;;;;;;21.39;27.75;933.1915;;;;
2020/03/27 12:59:41;;;;;;;13.3;9.1;;;;;;;21.3;28.14258;933.0785;;;;
2020/03/27 13:02:06;;;;;;;12.8;9.3;;;;;;;20.93;29.19434;933.1649;;;;
2020/03/27 13:04:31;;;;;;;14.8;9.8;;;;;;;19.67;31.31641;933.0798;;;;
2020/03/27 13:06:56;;;;;;;15.8;9.3;;;;;;;20.1;29.7002;933.116;;;;
2020/03/27 13:09:21;;;;;;;12.8;9.3;;;;;;;19.58;31.05273;933.1398;;;;
2020/03/27 13:11:46;;;;;;;15;9.8;;;;;;;19.33;31.16309;933.0589;;;;
2020/03/27 13:14:11;;;;;;;13.7;9.4;;;;;;;19.6;31.13574;933.0046;;;;
2020/03/27 13:16:36;;;;;;;13.7;9.5;;;;;;;19.06;32.54102;933.0561;;;;
2020/03/27 13:19:02;;;;;;;13.3;9.2;;;;;;;19.79;30.55371;932.9517;;;;
2020/03/27 13:21:28;;;;;;;12.5;9.4;;;;;;;20.39;29.5918;933.0206;;;;
2020/03/27 13:23:53;;;;;;;13.5;9.2;;;;;;;20.32;30.43945;933.0547;;;;
2020/03/27 13:26:19;;;;;;;14.3;8.5;;;;;;;20.84;28.9668;932.9402;;;;
2020/03/27 13:28:46;;;;;;;10.2;8.6;;;;;;;22.07;27.01953;932.8995;;;;
2020/03/27 13:31:10;;;;;;;11.8;8.4;;;;;;;21.27;27.92969;932.9485;;;;
2020/03/27 13:33:36;;;;;;;12.4;8.4;;;;;;;20.12;29.93555;932.9072;;;;
2020/03/27 13:36:01;;;;;;;14.4;8.3;;;;;;;21.01;28.35742;933.009;;;;
2020/03/27 13:38:27;;;;;;;15.6;8.5;;;;;;;20.88;29.17969;933.0602;;;;
2020/03/27 13:40:52;;;;;;;9.8;8.1;;;;;;;21.5;27.85059;932.8933;;;;
2020/03/27 13:43:17;;;;;;;12.6;8;;;;;;;20.93;28.82031;932.8251;;;;
2020/03/27 13:45:42;;;;;;;14.8;8.5;;;;;;;19.63;30.93945;932.8326;;;;
2020/03/27 13:48:10;;;;;;;14.2;8.5;;;;;;;19.76;30.24805;932.8645;;;;
2020/03/27 13:50:37;;;;;;;12;8.5;;;;;;;19.76;30.62207;932.8141;;;;
2020/03/27 13:53:02;;;;;;;15.3;8.4;;;;;;;19.93;30.71582;932.7676;;;;
2020/03/27 13:55:28;;;;;;;13.5;8.8;;;;;;;20.54;29.57813;932.7748;;;;
2020/03/27 13:57:53;;;;;;;11.5;8.7;;;;;;;19.07;31.86719;932.7561;;;;
2020/03/27 14:00:19;;;;;;;10.9;8.3;;;;;;;19.17;31.22168;932.8151;;;;
2020/03/27 14:02:43;;;;;;;16;9.4;;;;;;;18.17;33.61426;932.8398;;;;
2020/03/27 14:05:09;;;;;;;13;8.7;;;;;;;18.46;33.31055;932.7737;;;;
2020/03/27 14:07:34;;;;;;;12.4;8.8;;;;;;;18.56;33.48145;932.7217;;;;
2020/03/27 14:09:59;;;;;;;12.8;9.4;;;;;;;18.22;33.87305;932.6909;;;;
2020/03/27 14:12:26;;;;;;;12.9;8.8;;;;;;;18.04;34.46387;932.6824;;;;
2020/03/27 14:14:51;;;;;;;14.4;9.2;;;;;;;17.56;34.89063;932.6909;;;;
2020/03/27 14:17:16;;;;;;;13.8;8.7;;;;;;;17.01;36.46875;932.6397;;;;
2020/03/27 14:19:41;;;;;;;14.6;9.3;;;;;;;16.81;36.60254;932.7084;;;;
2020/03/27 14:22:06;;;;;;;14;9.2;;;;;;;16.41;37.40332;932.5823;;;;